createdAt,value
2023-01-25T00:00:42.166Z,101324.69
2023-01-25T00:03:11.755Z,101322.25
2023-01-25T00:05:48.077Z,101318.06
2023-01-25T00:08:17.297Z,101302.06
2023-01-25T00:10:46.329Z,101323.41
2023-01-25T00:13:16.013Z,101307.25
2023-01-25T00:15:45.317Z,101303.25
2023-01-25T00:18:19.737Z,101269.56
2023-01-25T00:20:57.173Z,101309.97
2023-01-25T00:23:26.874Z,101316.22
2023-01-25T00:25:59.530Z,101301.47
2023-01-25T00:28:29.197Z,101314.28
2023-01-25T00:31:06.374Z,101307.88
2023-01-25T00:33:42.196Z,101307.94
2023-01-25T00:36:36.268Z,101303.50
2023-01-25T00:39:07.033Z,101306.03
2023-01-25T00:41:36.360Z,101308.75
2023-01-25T00:44:05.838Z,101301.91
2023-01-25T00:46:35.298Z,101293.69
2023-01-25T00:49:07.525Z,101262.19
2023-01-25T00:51:38.964Z,101277.91
2023-01-25T00:54:08.436Z,101272.19
2023-01-25T00:56:37.673Z,101252.13
2023-01-25T00:59:07.123Z,101257.56
2023-01-25T01:01:36.981Z,101262.00
2023-01-25T01:04:06.703Z,101267.09
2023-01-25T01:06:39.866Z,101273.50
2023-01-25T01:09:14.405Z,101274.44
2023-01-25T01:11:48.829Z,101269.91
2023-01-25T01:14:20.808Z,101252.38
2023-01-25T01:19:31.439Z,101263.00
2023-01-25T01:22:02.708Z,101254.75
2023-01-25T01:24:37.106Z,101259.00
2023-01-25T01:27:06.697Z,101252.66
2023-01-25T01:29:36.029Z,101261.06
2023-01-25T01:32:10.294Z,101253.00
2023-01-25T01:34:39.732Z,101216.06
2023-01-25T01:37:11.873Z,101251.13
2023-01-25T01:39:41.557Z,101253.94
2023-01-25T01:42:15.795Z,101236.06
2023-01-25T01:44:50.449Z,101230.78
2023-01-25T01:47:26.486Z,101233.44
2023-01-25T01:50:03.502Z,101225.19
2023-01-25T01:52:41.674Z,101223.88
2023-01-25T01:55:15.034Z,101226.28
2023-01-25T01:57:49.530Z,101185.13
2023-01-25T02:00:27.498Z,101224.13
2023-01-25T02:03:02.601Z,101226.22
2023-01-25T02:05:38.036Z,101227.63
2023-01-25T02:08:15.909Z,101217.72
2023-01-25T02:10:47.281Z,101213.00
2023-01-25T02:13:16.985Z,101223.69
2023-01-25T02:15:48.966Z,101225.53
2023-01-25T02:18:23.252Z,101230.44
2023-01-25T02:20:58.002Z,101221.31
2023-01-25T02:23:43.068Z,101217.31
2023-01-25T02:26:20.644Z,101230.53
2023-01-25T02:28:54.352Z,101228.13
2023-01-25T02:31:29.049Z,101227.19
2023-01-25T02:33:58.544Z,101233.38
2023-01-25T02:36:35.685Z,101227.69
2023-01-25T02:39:07.996Z,101240.50
2023-01-25T02:41:42.408Z,101239.53
2023-01-25T02:44:20.348Z,101239.22
2023-01-25T02:46:49.861Z,101236.59
2023-01-25T02:49:26.628Z,101211.00
2023-01-25T02:51:57.630Z,101242.19
2023-01-25T02:57:07.667Z,101215.41
2023-01-25T02:59:45.656Z,101222.19
2023-01-25T03:02:16.573Z,101222.81
2023-01-25T03:04:51.367Z,101228.13
2023-01-25T03:07:20.714Z,101226.13
2023-01-25T03:09:49.910Z,101223.25
2023-01-25T03:12:26.525Z,101191.91
2023-01-25T03:14:56.462Z,101235.03
2023-01-25T03:17:31.175Z,101231.41
2023-01-25T03:20:00.644Z,101217.06
2023-01-25T03:22:29.866Z,101228.00
2023-01-25T03:24:59.277Z,101219.44
2023-01-25T03:27:31.415Z,101214.22
2023-01-25T03:30:11.547Z,101200.66
2023-01-25T03:32:40.786Z,101212.91
2023-01-25T03:35:13.653Z,101212.22
2023-01-25T03:37:43.098Z,101204.84
2023-01-25T03:40:14.308Z,101214.06
2023-01-25T03:42:51.911Z,101208.09
2023-01-25T03:45:27.564Z,101196.34
2023-01-25T03:47:57.438Z,101200.69
2023-01-25T03:50:26.731Z,101204.31
2023-01-25T03:53:25.354Z,101212.34
2023-01-25T03:55:57.085Z,101206.63
2023-01-25T03:58:35.275Z,101202.50
2023-01-25T04:01:06.588Z,101194.69
2023-01-25T04:03:36.968Z,101209.34
2023-01-25T04:06:12.723Z,101195.69
2023-01-25T04:08:42.463Z,101186.75
2023-01-25T04:11:12.373Z,101186.81
2023-01-25T04:13:45.799Z,101196.59
2023-01-25T04:16:17.697Z,101193.72
2023-01-25T04:19:21.118Z,101191.25
2023-01-25T04:21:57.995Z,101185.72
2023-01-25T04:24:32.238Z,101177.94
2023-01-25T04:27:01.633Z,101184.88
2023-01-25T04:29:41.494Z,101181.19
2023-01-25T04:32:16.499Z,101194.06
2023-01-25T04:34:51.075Z,101203.59
2023-01-25T04:37:24.111Z,101195.91
2023-01-25T04:42:43.841Z,101187.03
2023-01-25T04:45:20.773Z,101190.13
2023-01-25T04:47:50.704Z,101189.94
2023-01-25T04:50:20.501Z,101210.78
2023-01-25T04:52:49.983Z,101203.97
2023-01-25T04:55:21.237Z,101154.69
2023-01-25T04:57:56.631Z,101217.28
2023-01-25T05:00:28.686Z,101221.50
2023-01-25T05:03:00.752Z,101229.38
2023-01-25T05:05:30.169Z,101225.16
2023-01-25T05:08:01.579Z,101221.91
2023-01-25T05:10:31.848Z,101223.66
2023-01-25T05:13:19.637Z,101224.19
2023-01-25T05:15:52.139Z,101218.41
2023-01-25T05:18:21.595Z,101212.19
2023-01-25T05:20:57.209Z,101194.34
2023-01-25T05:26:15.939Z,101224.41
2023-01-25T05:28:45.620Z,101215.00
2023-01-25T05:31:34.085Z,101192.63
2023-01-25T05:34:03.270Z,101219.78
2023-01-25T05:36:32.527Z,101211.91
2023-01-25T05:39:01.961Z,101215.25
2023-01-25T05:41:38.813Z,101227.47
2023-01-25T05:44:08.145Z,101240.41
2023-01-25T05:46:44.298Z,101240.28
2023-01-25T05:49:14.138Z,101231.63
2023-01-25T05:51:45.468Z,101230.22
2023-01-25T05:54:16.655Z,101221.91
2023-01-25T05:57:00.659Z,101224.44
2023-01-25T05:59:29.985Z,101202.75
2023-01-25T06:04:45.471Z,101213.44
2023-01-25T06:07:16.186Z,101211.16
2023-01-25T06:09:46.471Z,101217.66
2023-01-25T06:12:15.768Z,101204.38
2023-01-25T06:14:46.951Z,101211.81
2023-01-25T06:17:18.177Z,101215.22
2023-01-25T06:20:14.909Z,101212.97
2023-01-25T06:23:05.934Z,101212.09
2023-01-25T06:25:35.651Z,101208.44
2023-01-25T06:28:05.058Z,101209.75
2023-01-25T06:30:46.576Z,101204.22
2023-01-25T06:33:17.811Z,101206.47
2023-01-25T06:35:47.825Z,101203.84
2023-01-25T06:38:17.068Z,101199.78
2023-01-25T06:40:49.484Z,101194.94
2023-01-25T06:43:18.799Z,101176.91
2023-01-25T06:45:47.969Z,101193.94
2023-01-25T06:48:19.331Z,101200.00
2023-01-25T06:51:01.123Z,101188.00
2023-01-25T06:53:40.524Z,101191.47
2023-01-25T06:56:12.113Z,101196.81
2023-01-25T06:58:42.660Z,101196.19
2023-01-25T07:01:16.509Z,101210.22
2023-01-25T07:03:55.267Z,101203.28
2023-01-25T07:06:25.284Z,101197.31
2023-01-25T07:08:54.525Z,101211.66
2023-01-25T07:11:24.398Z,101190.16
2023-01-25T07:13:53.556Z,101218.88
2023-01-25T07:16:28.216Z,101204.50
2023-01-25T07:18:59.459Z,101211.66
2023-01-25T07:21:28.867Z,101205.34
2023-01-25T07:24:03.201Z,101210.84
2023-01-25T07:26:33.582Z,101209.63
2023-01-25T07:29:02.779Z,101214.63
2023-01-25T07:31:32.058Z,101201.56
2023-01-25T07:34:09.458Z,101210.00
2023-01-25T07:36:47.666Z,101203.50
2023-01-25T07:39:17.224Z,101208.44
2023-01-25T07:41:46.603Z,101208.84
2023-01-25T07:44:25.052Z,101211.41
2023-01-25T07:46:59.321Z,101195.72
2023-01-25T07:49:30.545Z,101184.44
2023-01-25T07:51:59.880Z,101210.03
2023-01-25T07:54:31.258Z,101194.53
2023-01-25T07:57:00.527Z,101217.28
2023-01-25T07:59:31.620Z,101205.84
2023-01-25T08:02:01.020Z,101186.09
2023-01-25T08:04:32.393Z,101204.94
2023-01-25T08:07:01.759Z,101191.25
2023-01-25T08:09:31.325Z,101203.38
2023-01-25T08:12:00.694Z,101202.09
2023-01-25T08:14:30.108Z,101205.72
2023-01-25T08:16:59.316Z,101206.59
2023-01-25T08:19:28.558Z,101198.34
2023-01-25T08:21:59.903Z,101197.63
2023-01-25T08:24:35.691Z,101192.38
2023-01-25T08:27:04.894Z,101188.88
2023-01-25T08:29:34.299Z,101160.25
2023-01-25T08:32:06.096Z,101195.41
2023-01-25T08:34:51.953Z,101191.56
2023-01-25T08:37:23.223Z,101194.97
2023-01-25T08:39:52.530Z,101198.31
2023-01-25T08:42:22.512Z,101206.19
2023-01-25T08:45:02.365Z,101201.56
2023-01-25T08:47:33.764Z,101199.81
2023-01-25T08:50:09.628Z,101200.22
2023-01-25T08:52:41.142Z,101184.88
2023-01-25T08:55:11.925Z,101188.59
2023-01-25T08:57:41.199Z,101191.31
2023-01-25T09:00:13.615Z,101190.09
2023-01-25T09:02:43.055Z,101180.41
2023-01-25T09:05:12.780Z,101169.28
2023-01-25T09:07:44.486Z,101165.03
2023-01-25T09:10:16.386Z,101165.69
2023-01-25T09:12:50.813Z,101142.97
2023-01-25T09:15:25.667Z,101140.22
2023-01-25T09:17:55.881Z,101144.28
2023-01-25T09:20:26.334Z,101135.03
2023-01-25T09:22:57.966Z,101135.69
2023-01-25T09:25:27.534Z,101122.03
2023-01-25T09:27:56.595Z,101124.94
2023-01-25T09:30:45.516Z,101140.28
2023-01-25T09:33:30.243Z,101133.44
2023-01-25T09:35:59.785Z,101103.13
2023-01-25T09:38:31.540Z,101136.91
2023-01-25T09:41:18.950Z,101125.72
2023-01-25T09:44:14.990Z,101116.53
2023-01-25T09:46:48.901Z,101114.75
2023-01-25T09:49:33.221Z,101103.59
2023-01-25T09:52:21.667Z,101105.66
2023-01-25T09:54:54.551Z,101078.13
2023-01-25T09:57:29.833Z,101085.44
2023-01-25T10:00:02.082Z,101078.91
2023-01-25T10:02:44.808Z,101084.75
2023-01-25T10:05:20.204Z,101073.16
2023-01-25T10:08:05.114Z,101061.88
2023-01-25T10:10:40.949Z,101063.34
2023-01-25T10:13:13.728Z,101062.00
2023-01-25T10:15:46.871Z,101059.53
2023-01-25T10:18:27.483Z,101063.81
2023-01-25T10:21:00.711Z,101052.03
2023-01-25T10:23:44.909Z,101035.19
2023-01-25T10:26:24.279Z,101050.94
2023-01-25T10:29:05.912Z,101031.06
2023-01-25T10:31:42.047Z,101043.13
2023-01-25T10:34:20.235Z,101046.50
2023-01-25T10:36:55.224Z,101041.66
2023-01-25T10:39:30.049Z,101041.59
2023-01-25T10:42:16.849Z,101047.41
2023-01-25T10:44:46.341Z,101063.22
2023-01-25T10:47:23.579Z,101055.22
2023-01-25T10:49:57.079Z,101032.72
2023-01-25T10:52:28.501Z,101041.75
2023-01-25T10:55:16.333Z,101053.69
2023-01-25T10:57:50.519Z,101039.53
2023-01-25T11:00:30.350Z,101053.69
2023-01-25T11:03:00.293Z,101037.50
2023-01-25T11:05:35.759Z,101012.22
2023-01-25T11:08:25.283Z,101028.72
2023-01-25T11:10:55.381Z,101023.00
2023-01-25T11:13:29.062Z,100991.19
2023-01-25T11:16:23.810Z,101016.22
2023-01-25T11:18:56.125Z,101008.03
2023-01-25T11:21:27.579Z,101004.06
2023-01-25T11:24:18.778Z,101017.38
2023-01-25T11:26:48.561Z,101006.97
2023-01-25T11:29:21.693Z,101007.69
2023-01-25T11:31:54.029Z,100989.16
2023-01-25T11:34:28.397Z,100969.25
2023-01-25T11:37:21.809Z,100987.66
2023-01-25T11:39:57.757Z,100994.00
2023-01-25T11:42:37.421Z,100940.69
2023-01-25T11:45:35.537Z,100937.56
2023-01-25T11:48:30.551Z,100973.84
2023-01-25T11:51:05.923Z,100970.91
2023-01-25T11:53:53.998Z,100948.63
2023-01-25T11:56:42.034Z,100971.75
2023-01-25T11:59:22.426Z,100946.13
2023-01-25T12:02:09.544Z,100966.88
2023-01-25T12:05:02.310Z,100968.84
2023-01-25T12:07:50.925Z,100967.97
2023-01-25T12:10:32.558Z,100962.13
2023-01-25T12:13:10.848Z,100957.63
2023-01-25T12:16:01.259Z,100952.09
2023-01-25T12:18:56.619Z,100959.66
2023-01-25T12:21:38.617Z,100972.03
2023-01-25T12:24:24.010Z,100943.84
2023-01-25T12:27:09.828Z,100969.84
2023-01-25T12:29:45.795Z,100960.41
2023-01-25T12:32:26.399Z,100971.47
2023-01-25T12:35:23.727Z,100976.09
2023-01-25T12:38:00.437Z,100971.34
2023-01-25T12:40:48.868Z,100953.53
2023-01-25T12:43:23.185Z,100945.44
2023-01-25T12:45:55.403Z,100958.38
2023-01-25T12:53:58.786Z,100929.34
2023-01-25T12:56:40.281Z,100928.75
2023-01-25T12:59:19.602Z,100938.91
2023-01-25T13:01:53.372Z,100932.59
2023-01-25T13:04:41.762Z,100937.34
2023-01-25T13:07:24.115Z,100937.34
2023-01-25T13:10:01.869Z,100934.03
2023-01-25T13:12:51.658Z,100906.84
2023-01-25T13:18:41.047Z,100934.81
2023-01-25T13:21:44.838Z,100926.47
2023-01-25T13:24:30.499Z,100929.88
2023-01-25T13:27:07.054Z,100916.13
2023-01-25T13:29:58.605Z,100920.81
2023-01-25T13:32:58.885Z,100916.66
2023-01-25T13:35:30.709Z,100910.31
2023-01-25T13:38:02.811Z,100908.66
2023-01-25T13:40:37.265Z,100900.28
2023-01-25T13:43:20.363Z,100889.19
2023-01-25T13:45:53.004Z,100875.69
2023-01-25T13:48:24.250Z,100864.28
2023-01-25T13:50:57.212Z,100863.38
2023-01-25T13:53:29.205Z,100857.13
2023-01-25T13:56:03.869Z,100870.44
2023-01-25T13:58:41.932Z,100868.16
2023-01-25T14:01:17.993Z,100853.31
2023-01-25T14:03:49.870Z,100858.22
2023-01-25T14:06:21.990Z,100803.47
2023-01-25T14:08:57.271Z,100847.91
2023-01-25T14:11:30.731Z,100846.47
2023-01-25T14:14:18.854Z,100845.16
2023-01-25T14:16:48.461Z,100829.22
2023-01-25T14:19:31.019Z,100837.94
2023-01-25T14:22:21.335Z,100838.06
2023-01-25T14:25:05.692Z,100825.06
2023-01-25T14:27:36.208Z,100825.78
2023-01-25T14:30:13.791Z,100830.16
2023-01-25T14:32:44.361Z,100819.84
2023-01-25T14:35:54.588Z,100813.75
2023-01-25T14:38:31.669Z,100804.13
2023-01-25T14:43:45.055Z,100821.44
2023-01-25T14:46:33.513Z,100816.38
2023-01-25T14:49:25.123Z,100830.56
2023-01-25T14:52:04.758Z,100825.47
2023-01-25T14:54:37.034Z,100822.88
2023-01-25T14:57:08.223Z,100801.75
2023-01-25T14:59:41.372Z,100824.38
2023-01-25T15:02:28.683Z,100798.41
2023-01-25T15:05:10.903Z,100818.56
2023-01-25T15:07:47.603Z,100823.72
2023-01-25T15:10:20.555Z,100827.09
2023-01-25T15:13:13.216Z,100817.06
2023-01-25T15:15:57.385Z,100817.00
2023-01-25T15:18:50.297Z,100800.47
2023-01-25T15:21:21.242Z,100820.63
2023-01-25T15:23:56.588Z,100804.06
2023-01-25T15:26:28.064Z,100786.44
2023-01-25T15:28:59.694Z,100825.78
2023-01-25T15:31:31.352Z,100825.56
2023-01-25T15:34:18.003Z,100821.78
2023-01-25T15:36:47.658Z,100825.19
2023-01-25T15:39:18.549Z,100769.63
2023-01-25T15:41:48.425Z,100825.97
2023-01-25T15:44:19.737Z,100824.13
2023-01-25T15:46:55.374Z,100803.50
2023-01-25T15:49:31.170Z,100821.59
2023-01-25T15:54:35.603Z,100801.75
2023-01-25T15:57:04.785Z,100780.94
2023-01-25T15:59:43.215Z,100801.25
2023-01-25T16:02:14.510Z,100782.72
2023-01-25T16:07:30.075Z,100796.66
2023-01-25T16:09:59.489Z,100808.81
2023-01-25T16:12:28.703Z,100792.06
2023-01-25T16:14:57.876Z,100788.75
2023-01-25T16:17:30.063Z,100796.53
2023-01-25T16:20:01.328Z,100795.44
2023-01-25T16:22:38.010Z,100768.69
2023-01-25T16:25:09.271Z,100800.81
2023-01-25T16:27:38.470Z,100791.69
2023-01-25T16:30:15.054Z,100789.06
2023-01-25T16:35:29.489Z,100797.97
2023-01-25T16:37:58.826Z,100780.97
2023-01-25T16:40:32.120Z,100782.56
2023-01-25T16:43:01.260Z,100761.69
2023-01-25T16:45:31.069Z,100751.59
2023-01-25T16:48:01.486Z,100762.56
2023-01-25T16:50:32.772Z,100749.63
2023-01-25T16:53:02.012Z,100754.63
2023-01-25T16:55:31.145Z,100755.09
2023-01-25T16:58:10.654Z,100740.31
2023-01-25T17:00:39.887Z,100757.94
2023-01-25T17:03:09.006Z,100742.75
2023-01-25T17:05:40.691Z,100739.44
2023-01-25T17:08:15.382Z,100742.75
2023-01-25T17:10:44.941Z,100733.25
2023-01-25T17:13:14.324Z,100712.53
2023-01-25T17:15:43.580Z,100739.06
2023-01-25T17:18:12.722Z,100742.94
2023-01-25T17:20:44.598Z,100757.78
2023-01-25T17:23:19.137Z,100749.22
2023-01-25T17:25:48.515Z,100740.47
2023-01-25T17:28:17.705Z,100741.22
2023-01-25T17:30:47.096Z,100726.06
2023-01-25T17:33:17.239Z,100732.94
2023-01-25T17:35:58.215Z,100740.31
2023-01-25T17:38:27.463Z,100734.38
2023-01-25T17:41:05.463Z,100729.47
2023-01-25T17:43:35.500Z,100736.38
2023-01-25T17:46:13.420Z,100727.56
2023-01-25T17:48:43.002Z,100712.28
2023-01-25T17:51:14.205Z,100729.22
2023-01-25T17:53:43.524Z,100726.69
2023-01-25T17:56:13.716Z,100705.97
2023-01-25T17:58:43.812Z,100708.34
2023-01-25T18:01:15.175Z,100697.19
2023-01-25T18:03:45.492Z,100715.56
2023-01-25T18:06:18.401Z,100724.31
2023-01-25T18:08:49.297Z,100695.72
2023-01-25T18:11:21.194Z,100714.56
2023-01-25T18:13:51.838Z,100718.78
2023-01-25T18:16:23.352Z,100729.00
2023-01-25T18:18:59.557Z,100727.97
2023-01-25T18:21:33.862Z,100721.13
2023-01-25T18:24:05.792Z,100708.69
2023-01-25T18:26:36.548Z,100713.50
2023-01-25T18:29:32.885Z,100712.38
2023-01-25T18:32:04.480Z,100710.91
2023-01-25T18:37:20.169Z,100704.78
2023-01-25T18:39:51.138Z,100695.91
2023-01-25T18:42:20.833Z,100695.44
2023-01-25T18:44:49.965Z,100709.50
2023-01-25T18:47:25.702Z,100694.28
2023-01-25T18:49:55.128Z,100689.03
2023-01-25T18:52:31.932Z,100683.06
2023-01-25T18:55:01.040Z,100684.75
2023-01-25T18:57:30.297Z,100684.53
2023-01-25T19:00:04.659Z,100688.63
2023-01-25T19:02:34.474Z,100658.03
2023-01-25T19:05:03.605Z,100683.88
2023-01-25T19:07:35.161Z,100681.50
2023-01-25T19:10:04.595Z,100689.78
2023-01-25T19:12:33.636Z,100645.28
2023-01-25T19:15:02.970Z,100667.53
2023-01-25T19:17:37.059Z,100669.38
2023-01-25T19:20:12.276Z,100671.53
2023-01-25T19:22:43.291Z,100653.25
2023-01-25T19:25:18.304Z,100657.69
2023-01-25T19:27:47.484Z,100663.22
2023-01-25T19:30:17.589Z,100641.00
2023-01-25T19:32:52.009Z,100652.97
2023-01-25T19:35:24.153Z,100652.63
2023-01-25T19:37:55.495Z,100648.28
2023-01-25T19:40:24.871Z,100649.16
2023-01-25T19:42:54.000Z,100635.81
2023-01-25T19:45:23.580Z,100655.63
2023-01-25T19:47:57.707Z,100637.47
2023-01-25T19:50:27.254Z,100651.44
2023-01-25T19:53:00.324Z,100646.44
2023-01-25T19:55:29.915Z,100645.66
2023-01-25T19:58:01.897Z,100642.16
2023-01-25T20:00:31.193Z,100643.75
2023-01-25T20:03:14.811Z,100644.63
2023-01-25T20:05:45.370Z,100651.44
2023-01-25T20:08:16.381Z,100640.59
2023-01-25T20:10:47.649Z,100627.84
2023-01-25T20:13:17.236Z,100632.72
2023-01-25T20:15:50.196Z,100634.50
2023-01-25T20:18:25.055Z,100621.94
2023-01-25T20:20:58.343Z,100615.03
2023-01-25T20:23:33.131Z,100624.38
2023-01-25T20:31:49.083Z,100631.78
2023-01-25T20:34:20.799Z,100630.75
2023-01-25T20:36:52.435Z,100604.91
2023-01-25T20:39:24.289Z,100629.06
2023-01-25T20:41:57.970Z,100620.75
2023-01-25T20:44:30.622Z,100601.56
2023-01-25T20:47:13.816Z,100591.81
2023-01-25T20:49:43.149Z,100618.19
2023-01-25T20:52:13.406Z,100613.44
2023-01-25T20:54:52.126Z,100618.56
2023-01-25T20:57:21.411Z,100606.53
2023-01-25T20:59:50.636Z,100600.28
2023-01-25T21:02:19.972Z,100591.69
2023-01-25T21:04:54.183Z,100585.06
2023-01-25T21:07:28.547Z,100582.78
2023-01-25T21:09:59.682Z,100586.88
2023-01-25T21:12:31.013Z,100571.59
2023-01-25T21:15:07.449Z,100575.09
2023-01-25T21:17:43.691Z,100578.56
2023-01-25T21:20:13.459Z,100556.56
2023-01-25T21:22:42.538Z,100552.06
2023-01-25T21:25:14.057Z,100552.38
2023-01-25T21:27:43.195Z,100568.91
2023-01-25T21:30:22.423Z,100572.91
2023-01-25T21:32:52.800Z,100565.97
2023-01-25T21:35:22.065Z,100564.06
2023-01-25T21:37:51.519Z,100562.22
2023-01-25T21:40:27.627Z,100545.72
2023-01-25T21:42:56.822Z,100550.72
2023-01-25T21:45:43.914Z,100545.09
2023-01-25T21:48:16.995Z,100553.09
2023-01-25T21:51:14.485Z,100551.53
2023-01-25T21:53:43.751Z,100552.56
2023-01-25T21:56:19.781Z,100549.69
2023-01-25T21:58:50.640Z,100541.22
2023-01-25T22:01:20.642Z,100540.44
2023-01-25T22:03:50.261Z,100535.53
2023-01-25T22:06:20.579Z,100538.22
2023-01-25T22:08:49.718Z,100533.78
2023-01-25T22:11:26.055Z,100484.44
2023-01-25T22:14:08.088Z,100522.78
2023-01-25T22:16:37.349Z,100513.19
2023-01-25T22:19:06.835Z,100489.28
2023-01-25T22:21:36.384Z,100527.44
2023-01-25T22:24:12.077Z,100524.59
2023-01-25T22:26:52.446Z,100527.91
2023-01-25T22:31:56.572Z,100510.25
2023-01-25T22:34:27.015Z,100525.06
2023-01-25T22:37:06.628Z,100519.84
2023-01-25T22:39:40.975Z,100537.66
2023-01-25T22:42:17.980Z,100525.69
2023-01-25T22:44:47.313Z,100527.13
2023-01-25T22:47:16.477Z,100515.94
2023-01-25T22:49:45.705Z,100522.59
2023-01-25T22:52:14.983Z,100518.06
2023-01-25T22:54:51.426Z,100509.84
2023-01-25T22:57:22.500Z,100513.47
2023-01-25T22:59:51.852Z,100511.31
2023-01-25T23:02:22.208Z,100509.03
2023-01-25T23:04:51.587Z,100504.78
2023-01-25T23:07:25.853Z,100457.63
2023-01-25T23:09:55.059Z,100506.88
2023-01-25T23:12:26.090Z,100480.38
2023-01-25T23:14:58.670Z,100491.59
2023-01-25T23:17:45.873Z,100492.22
2023-01-25T23:20:15.943Z,100494.44
2023-01-25T23:22:45.063Z,100480.75
2023-01-25T23:25:14.320Z,100478.28
2023-01-25T23:27:45.507Z,100456.44
2023-01-25T23:30:17.915Z,100470.88
2023-01-25T23:32:52.131Z,100480.78
2023-01-25T23:35:22.233Z,100487.03
2023-01-25T23:37:51.590Z,100490.84
2023-01-25T23:40:20.795Z,100491.34
2023-01-25T23:45:33.249Z,100474.16
2023-01-25T23:48:07.814Z,100499.03
2023-01-25T23:50:42.107Z,100466.47
2023-01-25T23:53:11.148Z,100475.00
2023-01-25T23:55:54.216Z,100472.81
2023-01-25T23:58:26.429Z,100475.97
